Time;durP1;ratioP1;P1;durP2;ratioP2;P2;SDS_P1;SDS_P2;PMS_P1;PMS_P2;Temp;Humidity;BMP_temperature;BMP_pressure;BME280_temperature;BME280_humidity;BME280_pressure;Samples;Min_cycle;Max_cycle;Signal;HPM_P1;HPM_P2
2022/08/12 00:44:44;;;;;;;2.47;2.10;;;14.20;78.50;;;;;;5090823;28;20111;-91
2022/08/12 00:47:12;;;;;;;2.25;2.05;;;14.10;79.60;;;;;;5073107;28;20551;-90
2022/08/12 00:49:38;;;;;;;5.15;2.28;;;14.00;80.10;;;;;;5092412;28;20500;-90
2022/08/12 00:52:05;;;;;;;5.88;2.60;;;13.90;80.20;;;;;;5091192;28;20033;-90
2022/08/12 00:54:35;;;;;;;4.13;2.00;;;13.80;80.70;;;;;;5090636;28;20041;-90
2022/08/12 00:57:09;;;;;;;5.00;2.58;;;13.80;82.10;;;;;;5078647;28;20025;-90
2022/08/12 00:59:39;;;;;;;2.85;2.55;;;13.70;82.90;;;;;;5076317;28;20035;-90
2022/08/12 01:02:05;;;;;;;5.95;2.88;;;13.70;82.90;;;;;;5083699;28;20543;-90
2022/08/12 01:12:49;;;;;;;4.82;2.40;;;13.40;87.70;;;;;;5090168;28;20043;-90
2022/08/12 01:15:16;;;;;;;5.53;2.60;;;13.40;88.90;;;;;;5074073;28;20040;-90
2022/08/12 01:17:44;;;;;;;3.95;2.47;;;13.30;90.70;;;;;;5086579;28;20060;-90
2022/08/12 01:20:17;;;;;;;4.30;2.60;;;13.30;90.50;;;;;;5077798;28;20037;-89
2022/08/12 01:22:57;;;;;;;2.63;2.40;;;13.20;90.80;;;;;;5061599;28;20037;-89
2022/08/12 01:25:27;;;;;;;2.60;2.40;;;13.20;91.20;;;;;;5073466;28;20054;-90
2022/08/12 01:27:56;;;;;;;3.70;2.50;;;13.20;90.90;;;;;;5088216;28;20054;-90
2022/08/12 01:30:25;;;;;;;3.53;2.92;;;13.20;90.50;;;;;;5080137;28;20461;-89
2022/08/12 01:32:53;;;;;;;3.67;2.28;;;13.20;90.60;;;;;;5087394;28;20072;-89
2022/08/12 01:35:20;;;;;;;5.15;2.50;;;13.10;90.80;;;;;;5081592;28;20020;-90
2022/08/12 01:37:56;;;;;;;4.07;3.45;;;13.10;91.70;;;;;;5080347;28;20020;-90
2022/08/12 01:40:34;;;;;;;6.60;2.97;;;13.00;91.60;;;;;;5085855;28;20048;-89
2022/08/12 01:43:05;;;;;;;9.38;2.90;;;12.90;92.60;;;;;;5073886;28;20079;-90
2022/08/12 01:45:33;;;;;;;7.15;2.67;;;12.80;92.50;;;;;;5090500;28;20028;-90
2022/08/12 01:48:14;;;;;;;6.85;2.72;;;12.80;93.00;;;;;;5078849;28;20044;-90
2022/08/12 01:51:01;;;;;;;3.30;3.00;;;12.70;93.20;;;;;;5081315;28;20067;-89
2022/08/12 01:53:45;;;;;;;2.90;2.55;;;12.70;93.30;;;;;;5084638;28;20123;-89
2022/08/12 01:56:13;;;;;;;5.40;2.95;;;12.60;93.80;;;;;;5073892;28;20025;-89
2022/08/12 02:01:33;;;;;;;3.00;2.70;;;12.60;94.10;;;;;;5084218;28;20078;-88
2022/08/12 02:13:02;;;;;;;4.18;3.17;;;12.50;96.00;;;;;;5091327;28;20553;-89
2022/08/12 02:15:52;;;;;;;4.93;3.10;;;12.50;96.20;;;;;;5084673;28;20036;-89
2022/08/12 02:18:45;;;;;;;3.65;3.10;;;12.40;96.90;;;;;;5067469;28;20032;-90
2022/08/12 02:21:25;;;;;;;5.05;3.08;;;12.40;96.60;;;;;;5085341;28;20040;-89
2022/08/12 02:23:52;;;;;;;5.03;3.47;;;12.30;96.90;;;;;;5090178;28;20024;-89
2022/08/12 02:26:19;;;;;;;4.88;3.50;;;12.30;97.10;;;;;;5083090;28;20043;-89
2022/08/12 02:28:46;;;;;;;5.40;3.55;;;12.20;98.00;;;;;;5088905;28;20021;-90
2022/08/12 02:31:13;;;;;;;3.38;2.83;;;12.10;98.10;;;;;;5085903;28;20020;-88
2022/08/12 02:33:40;;;;;;;5.63;3.78;;;12.10;98.50;;;;;;5086429;28;20021;-90
2022/08/12 02:36:06;;;;;;;3.95;3.08;;;12.10;98.80;;;;;;5072620;28;20063;-90
2022/08/12 02:38:32;;;;;;;4.32;3.10;;;12.00;99.00;;;;;;5088434;28;20032;-89
2022/08/12 02:41:03;;;;;;;3.75;2.97;;;12.00;99.30;;;;;;5076838;28;20131;-90
2022/08/12 02:43:49;;;;;;;4.72;3.33;;;12.00;99.30;;;;;;5077696;28;20032;-89
2022/08/12 02:46:21;;;;;;;3.70;3.40;;;11.90;99.90;;;;;;5088907;28;20112;-90
2022/08/12 02:48:49;;;;;;;4.35;3.40;;;11.90;99.90;;;;;;5065239;28;20047;-89
2022/08/12 02:51:19;;;;;;;4.45;4.00;;;11.90;99.90;;;;;;5082911;28;20102;-90
2022/08/12 02:53:46;;;;;;;3.42;3.22;;;11.90;99.90;;;;;;5074825;28;20032;-90
2022/08/12 02:56:11;;;;;;;3.65;3.35;;;11.90;99.90;;;;;;5074109;28;20028;-89
2022/08/12 02:58:39;;;;;;;4.13;3.55;;;11.90;99.90;;;;;;5077354;28;20531;-89
2022/08/12 03:01:09;;;;;;;3.70;3.35;;;11.90;99.90;;;;;;5068838;28;20050;-89
2022/08/12 03:03:37;;;;;;;6.38;3.67;;;11.90;99.90;;;;;;5088344;28;20030;-90
2022/08/12 03:06:11;;;;;;;9.20;3.53;;;11.80;99.90;;;;;;5083699;28;20025;-89
2022/08/12 03:08:42;;;;;;;3.83;3.53;;;11.80;99.90;;;;;;5086854;28;20123;-89
2022/08/12 03:11:38;;;;;;;3.78;3.17;;;11.80;99.90;;;;;;5093546;28;20016;-89
2022/08/12 03:14:09;;;;;;;3.78;3.55;;;11.80;99.90;;;;;;5067941;28;20385;-90
2022/08/12 03:16:38;;;;;;;4.43;3.88;;;11.70;99.90;;;;;;5071284;28;20062;-90
2022/08/12 03:19:05;;;;;;;6.88;3.83;;;11.60;99.90;;;;;;5110500;28;20048;-90
2022/08/12 03:21:36;;;;;;;6.15;3.75;;;11.60;99.90;;;;;;5093570;28;20032;-88
2022/08/12 03:24:04;;;;;;;7.50;3.90;;;11.50;99.90;;;;;;5094509;28;20047;-89
2022/08/12 03:26:33;;;;;;;4.60;4.18;;;11.40;99.90;;;;;;5079515;28;20071;-90
2022/08/12 03:29:05;;;;;;;6.75;3.75;;;11.40;99.90;;;;;;5080881;28;20499;-90
2022/08/12 03:31:32;;;;;;;6.97;4.35;;;11.30;99.90;;;;;;5084635;28;20518;-89
2022/08/12 03:34:11;;;;;;;4.25;3.95;;;11.20;99.90;;;;;;5086545;28;20051;-90
2022/08/12 03:36:39;;;;;;;4.30;3.75;;;11.10;99.90;;;;;;5089871;28;20032;-90
2022/08/12 03:41:57;;;;;;;4.35;4.03;;;11.00;99.90;;;;;;5084623;28;20055;-90
2022/08/12 04:01:41;;;;;;;4.95;4.53;;;11.00;99.90;;;;;;5079176;28;20511;-89
2022/08/12 04:04:10;;;;;;;5.63;5.13;;;11.00;99.90;;;;;;5087030;28;20020;-89
2022/08/12 04:06:44;;;;;;;5.05;4.53;;;11.00;99.90;;;;;;5101405;28;20023;-89
2022/08/12 04:09:11;;;;;;;9.15;5.68;;;11.00;99.90;;;;;;5089373;28;20032;-88
2022/08/12 04:14:25;;;;;;;5.32;4.82;;;11.00;99.90;;;;;;5083700;28;20105;-90
2022/08/12 04:16:52;;;;;;;4.70;4.40;;;11.00;99.90;;;;;;5081080;28;20620;-90
2022/08/12 04:19:19;;;;;;;5.03;4.70;;;11.00;99.90;;;;;;5087353;28;20082;-89
2022/08/12 04:21:45;;;;;;;6.90;4.63;;;11.00;99.90;;;;;;5079914;28;20091;-89
2022/08/12 04:24:12;;;;;;;6.30;5.00;;;11.00;99.90;;;;;;5077969;28;20373;-88
2022/08/12 04:26:38;;;;;;;5.00;4.45;;;11.00;99.90;;;;;;5087189;28;20123;-90
2022/08/12 04:29:05;;;;;;;5.70;5.30;;;11.00;99.90;;;;;;5092464;28;20462;-90
2022/08/12 04:31:39;;;;;;;6.00;5.50;;;11.00;99.90;;;;;;5074583;28;20434;-91
2022/08/12 04:34:07;;;;;;;5.18;4.63;;;11.00;99.90;;;;;;5084435;28;20499;-90
2022/08/12 04:36:35;;;;;;;11.88;5.32;;;11.00;99.90;;;;;;5092735;28;20020;-89
2022/08/12 04:39:03;;;;;;;5.10;4.60;;;11.00;99.90;;;;;;5074753;28;20028;-89
2022/08/12 04:41:30;;;;;;;5.60;4.88;;;11.10;99.90;;;;;;5091109;28;20959;-89
2022/08/12 04:43:56;;;;;;;5.68;4.82;;;11.10;99.90;;;;;;5090817;28;20090;-90
2022/08/12 04:46:23;;;;;;;5.22;4.72;;;11.20;99.90;;;;;;5071545;28;20432;-88
2022/08/12 04:48:49;;;;;;;5.70;5.20;;;11.30;99.90;;;;;;5062666;28;20020;-88
2022/08/12 04:51:16;;;;;;;5.35;4.85;;;11.30;99.90;;;;;;5085408;28;20052;-89
2022/08/12 04:53:42;;;;;;;5.68;4.55;;;11.40;99.90;;;;;;5088451;28;20030;-90
2022/08/12 04:56:11;;;;;;;4.97;4.57;;;11.40;99.90;;;;;;5092200;28;20027;-90
2022/08/12 04:58:37;;;;;;;6.97;5.20;;;11.50;99.90;;;;;;5084481;28;20027;-90
2022/08/12 05:01:03;;;;;;;4.82;4.50;;;11.60;99.90;;;;;;5077527;28;20109;-90
2022/08/12 05:03:30;;;;;;;5.78;5.28;;;11.70;99.90;;;;;;5082610;28;20037;-90
2022/08/12 05:05:59;;;;;;;5.45;4.95;;;11.80;99.90;;;;;;5080899;28;20024;-89
2022/08/12 05:08:25;;;;;;;7.43;4.72;;;12.00;99.90;;;;;;5070379;28;20048;-90
2022/08/12 05:10:51;;;;;;;5.40;4.90;;;12.40;99.90;;;;;;5077909;28;20021;-90
2022/08/12 05:13:37;;;;;;;4.40;3.88;;;13.30;99.90;;;;;;5088061;28;20108;-90
2022/08/12 05:16:05;;;;;;;4.65;3.60;;;14.50;99.90;;;;;;5088649;28;20021;-90
2022/08/12 05:18:40;;;;;;;5.88;3.75;;;15.80;99.90;;;;;;5084255;28;20028;-89
2022/08/12 05:21:08;;;;;;;3.97;3.60;;;17.10;96.70;;;;;;5082574;28;20123;-91
2022/08/12 05:23:36;;;;;;;4.32;2.67;;;18.60;90.30;;;;;;5073415;28;20446;-91
2022/08/12 05:26:04;;;;;;;2.85;2.65;;;19.90;83.90;;;;;;5091554;28;20025;-91
2022/08/12 05:28:31;;;;;;;3.25;2.95;;;21.20;75.20;;;;;;5079202;28;20028;-91
2022/08/12 05:31:00;;;;;;;3.22;3.00;;;22.40;70.20;;;;;;5062528;28;20063;-91
2022/08/12 05:33:36;;;;;;;3.95;2.60;;;23.40;64.00;;;;;;5086631;28;20024;-90
2022/08/12 05:36:07;;;;;;;4.50;2.95;;;24.00;61.20;;;;;;5082240;28;20098;-91
2022/08/12 05:41:19;;;;;;;7.40;2.72;;;25.70;57.20;;;;;;5084500;28;20408;-92
2022/08/12 05:43:59;;;;;;;2.53;2.22;;;26.50;54.80;;;;;;5088980;28;20039;-91
2022/08/12 05:46:26;;;;;;;2.85;2.20;;;27.10;52.30;;;;;;5082116;28;20484;-91
2022/08/12 05:48:55;;;;;;;2.85;2.65;;;27.30;51.00;;;;;;5084070;28;20060;-91
2022/08/12 05:51:27;;;;;;;4.22;2.20;;;27.80;49.70;;;;;;5086652;28;20032;-91
2022/08/12 05:53:55;;;;;;;4.63;2.22;;;28.10;48.90;;;;;;5066616;28;20032;-91
2022/08/12 05:56:26;;;;;;;2.22;1.98;;;28.80;47.90;;;;;;5084663;28;20455;-91
2022/08/12 05:58:53;;;;;;;4.30;2.00;;;29.00;47.20;;;;;;5080837;28;20032;-92
2022/08/12 06:01:20;;;;;;;5.93;2.30;;;29.10;46.00;;;;;;5087824;28;20081;-91
2022/08/12 06:03:46;;;;;;;2.40;2.13;;;29.00;46.30;;;;;;5071690;28;20025;-91
2022/08/12 06:06:17;;;;;;;4.30;2.10;;;29.30;46.20;;;;;;5098217;28;20030;-91
2022/08/12 06:08:47;;;;;;;3.28;1.92;;;29.30;45.90;;;;;;5092640;28;20511;-90
2022/08/12 06:11:14;;;;;;;4.22;2.03;;;29.50;45.50;;;;;;5091095;28;20074;-90
2022/08/12 06:13:42;;;;;;;5.93;2.25;;;29.80;45.40;;;;;;5090133;28;20111;-92
2022/08/12 06:16:10;;;;;;;4.88;2.65;;;30.00;44.60;;;;;;5085367;28;20111;-92
2022/08/12 06:18:39;;;;;;;3.20;1.75;;;29.80;44.50;;;;;;5089908;28;20066;-91
2022/08/12 06:21:10;;;;;;;3.97;1.52;;;29.80;44.80;;;;;;5084893;28;20043;-92
2022/08/12 06:23:36;;;;;;;2.08;1.20;;;30.30;44.30;;;;;;5060022;28;20035;-92
2022/08/12 06:26:04;;;;;;;2.15;1.45;;;31.20;43.90;;;;;;5062626;28;20450;-91
2022/08/12 06:28:30;;;;;;;2.13;1.42;;;31.60;41.30;;;;;;5073541;28;20032;-91
2022/08/12 06:30:57;;;;;;;5.60;1.60;;;32.40;40.50;;;;;;5072131;28;20031;-93
2022/08/12 06:33:23;;;;;;;4.07;1.80;;;33.30;40.00;;;;;;5082132;28;20035;-91
2022/08/12 06:35:50;;;;;;;5.97;1.92;;;34.10;38.30;;;;;;5082821;28;20571;-92
2022/08/12 06:38:24;;;;;;;3.75;1.45;;;34.30;37.90;;;;;;5088105;28;20036;-92
2022/08/12 06:43:38;;;;;;;3.72;1.98;;;34.10;38.40;;;;;;5089694;28;20126;-93
2022/08/12 06:46:04;;;;;;;6.40;1.50;;;34.50;37.90;;;;;;5109269;28;20016;-93
2022/08/12 06:48:30;;;;;;;11.20;1.63;;;35.00;36.80;;;;;;5097599;28;20040;-92
2022/08/12 06:50:57;;;;;;;6.18;1.33;;;35.00;37.40;;;;;;5088989;28;20457;-92
2022/08/12 06:53:25;;;;;;;2.17;1.20;;;35.00;37.20;;;;;;5095174;28;20033;-92
2022/08/12 06:55:55;;;;;;;1.92;1.30;;;35.20;37.20;;;;;;5087115;28;20024;-92
2022/08/12 06:58:23;;;;;;;1.55;1.40;;;35.70;36.40;;;;;;5086290;28;20090;-93
2022/08/12 07:00:50;;;;;;;5.30;1.50;;;35.60;35.80;;;;;;5092456;28;20034;-92
2022/08/12 07:03:21;;;;;;;3.53;1.63;;;36.00;36.10;;;;;;5093582;28;20039;-92
2022/08/12 07:05:47;;;;;;;5.72;1.70;;;36.20;35.10;;;;;;5085724;28;20025;-93
2022/08/12 07:08:15;;;;;;;4.88;1.70;;;36.80;35.30;;;;;;5079386;28;20035;-93
2022/08/12 07:10:57;;;;;;;6.72;1.55;;;37.00;34.00;;;;;;5081098;28;20510;-93
2022/08/12 07:13:26;;;;;;;3.45;1.42;;;37.10;34.60;;;;;;5085855;28;20438;-92
2022/08/12 07:15:54;;;;;;;4.70;1.58;;;37.70;33.60;;;;;;5064544;28;20016;-92
2022/08/12 07:18:21;;;;;;;6.53;1.17;;;37.90;32.40;;;;;;5073699;28;20087;-93
2022/08/12 07:20:47;;;;;;;2.85;1.20;;;38.00;32.80;;;;;;5060799;28;20024;-92
2022/08/12 07:23:15;;;;;;;3.20;1.10;;;38.30;33.30;;;;;;5092185;28;20024;-92
2022/08/12 07:25:42;;;;;;;4.07;0.90;;;38.50;32.30;;;;;;5083907;28;20032;-93
2022/08/12 07:28:10;;;;;;;7.82;1.33;;;38.90;31.80;;;;;;5089886;28;20028;-93
2022/08/12 07:30:38;;;;;;;3.75;1.10;;;38.50;31.50;;;;;;5087758;28;20031;-91
2022/08/12 07:33:07;;;;;;;5.55;0.98;;;39.00;31.40;;;;;;5082276;28;20068;-91
2022/08/12 07:35:41;;;;;;;2.07;0.90;;;39.00;31.20;;;;;;5086103;28;20040;-93
2022/08/12 07:38:23;;;;;;;2.42;0.88;;;36.30;32.50;;;;;;5092107;28;20166;-91
2022/08/12 07:41:04;;;;;;;8.52;1.33;;;34.70;33.90;;;;;;5072456;28;20158;-92
2022/08/12 07:43:32;;;;;;;1.50;0.98;;;34.60;36.10;;;;;;5089705;28;20024;-92
2022/08/12 07:45:59;;;;;;;1.20;0.80;;;35.60;36.10;;;;;;5094305;28;20072;-91
2022/08/12 07:48:26;;;;;;;1.60;1.50;;;36.30;33.90;;;;;;5093762;28;20428;-91
2022/08/12 07:50:52;;;;;;;2.40;1.10;;;36.80;32.80;;;;;;5085946;28;20024;-92
2022/08/12 07:53:19;;;;;;;2.97;0.90;;;37.00;33.50;;;;;;5088642;28;20480;-93
2022/08/12 07:55:44;;;;;;;4.03;1.10;;;36.30;33.20;;;;;;5087937;28;20070;-92
2022/08/12 07:58:10;;;;;;;2.72;1.00;;;35.00;33.70;;;;;;5089353;28;20051;-92
2022/08/12 08:00:39;;;;;;;2.63;1.02;;;32.60;36.30;;;;;;5088138;28;20028;-93
2022/08/12 08:03:07;;;;;;;6.95;1.17;;;32.00;38.30;;;;;;5083042;28;20032;-92
2022/08/12 08:05:47;;;;;;;1.73;0.75;;;32.30;38.80;;;;;;5080566;28;20115;-92
2022/08/12 08:08:22;;;;;;;2.00;1.00;;;32.50;38.10;;;;;;5092064;28;20027;-91
2022/08/12 08:10:51;;;;;;;3.42;0.90;;;32.90;37.20;;;;;;5089792;28;20282;-92
2022/08/12 08:13:17;;;;;;;1.60;0.70;;;32.90;37.70;;;;;;5091129;28;20021;-91
2022/08/12 08:15:45;;;;;;;3.08;0.95;;;33.90;37.10;;;;;;5075371;28;20032;-91
2022/08/12 08:18:15;;;;;;;2.92;0.95;;;34.10;35.70;;;;;;5085090;28;20025;-92
2022/08/12 08:20:43;;;;;;;2.75;0.90;;;34.40;35.10;;;;;;5089833;28;20047;-93
2022/08/12 08:23:15;;;;;;;2.20;0.77;;;34.50;35.20;;;;;;5077005;28;20052;-92
2022/08/12 08:25:42;;;;;;;2.30;0.90;;;34.10;36.10;;;;;;5080365;28;20112;-92
2022/08/12 08:28:12;;;;;;;8.45;0.90;;;35.50;36.20;;;;;;5074792;28;20032;-92
2022/08/12 08:30:42;;;;;;;1.85;0.90;;;35.90;33.20;;;;;;5084137;28;20422;-92
2022/08/12 08:33:09;;;;;;;4.32;0.95;;;36.90;32.80;;;;;;5076990;28;20024;-92
2022/08/12 08:35:37;;;;;;;2.60;0.77;;;36.10;32.50;;;;;;5085344;28;20088;-93
2022/08/12 08:38:09;;;;;;;2.92;0.80;;;35.70;33.00;;;;;;5093634;28;20121;-92
2022/08/12 08:43:21;;;;;;;1.75;0.80;;;35.60;33.20;;;;;;5088800;28;20028;-93
2022/08/12 08:45:47;;;;;;;3.47;1.00;;;35.20;33.60;;;;;;5076118;28;20475;-93
2022/08/12 08:48:13;;;;;;;2.58;1.00;;;35.30;34.10;;;;;;5104119;28;20036;-93
2022/08/12 08:50:39;;;;;;;3.08;0.85;;;36.00;33.30;;;;;;5078774;28;20039;-93
2022/08/12 08:53:07;;;;;;;2.20;0.85;;;37.00;32.50;;;;;;5084929;28;20028;-94
2022/08/12 08:55:36;;;;;;;0.80;0.73;;;36.90;32.10;;;;;;5076619;28;20089;-93
2022/08/12 08:58:02;;;;;;;2.97;0.85;;;36.10;31.60;;;;;;5081442;28;20044;-94
2022/08/12 09:00:29;;;;;;;1.83;0.90;;;35.80;32.50;;;;;;5084148;28;20663;-93
2022/08/12 09:02:54;;;;;;;1.88;0.70;;;35.20;33.70;;;;;;5082097;28;20047;-93
2022/08/12 09:05:20;;;;;;;2.65;1.10;;;34.30;34.60;;;;;;5081239;28;20081;-94
2022/08/12 09:07:48;;;;;;;2.50;0.90;;;34.40;35.70;;;;;;5076170;28;20024;-94
2022/08/12 09:10:21;;;;;;;4.75;1.00;;;35.20;34.40;;;;;;5082197;28;20032;-93
2022/08/12 09:15:34;;;;;;;2.05;0.90;;;35.70;33.10;;;;;;5080714;28;20110;-94
2022/08/12 09:18:01;;;;;;;6.50;0.93;;;36.50;32.40;;;;;;5083279;28;20028;-93
2022/08/12 09:20:29;;;;;;;3.15;0.77;;;36.70;32.80;;;;;;5082220;28;20056;-94
2022/08/12 09:22:56;;;;;;;1.23;0.80;;;37.10;32.00;;;;;;5083676;28;20047;-94
2022/08/12 09:25:26;;;;;;;1.95;0.80;;;36.60;30.90;;;;;;5091810;28;20028;-93
2022/08/12 09:27:54;;;;;;;2.25;0.75;;;36.70;33.10;;;;;;5078894;28;20051;-93
2022/08/12 09:30:21;;;;;;;1.80;0.73;;;36.40;32.50;;;;;;5094236;28;20028;-93
2022/08/12 09:32:51;;;;;;;1.70;0.70;;;36.50;33.20;;;;;;5082858;28;20048;-93
2022/08/12 09:35:25;;;;;;;1.80;0.90;;;36.30;33.40;;;;;;5079386;28;20024;-94
2022/08/12 09:37:54;;;;;;;2.08;0.80;;;36.20;32.70;;;;;;5070320;28;20093;-93
2022/08/12 09:40:21;;;;;;;1.63;0.80;;;36.50;33.40;;;;;;5087499;28;20078;-93
2022/08/12 09:45:33;;;;;;;1.85;0.63;;;36.90;33.00;;;;;;5091147;28;20078;-93
2022/08/12 09:48:07;;;;;;;5.07;0.90;;;37.20;31.30;;;;;;5089824;28;20492;-93
2022/08/12 09:50:34;;;;;;;0.98;0.60;;;37.00;31.30;;;;;;5084906;28;20049;-93
2022/08/12 09:53:07;;;;;;;2.72;0.90;;;36.60;31.90;;;;;;5077158;28;20400;-93
2022/08/12 09:55:33;;;;;;;4.82;0.75;;;36.60;32.20;;;;;;5091773;28;20032;-94
2022/08/12 09:57:59;;;;;;;1.98;0.63;;;35.00;31.20;;;;;;5089074;28;20490;-93
2022/08/12 10:00:26;;;;;;;4.88;0.82;;;34.20;33.90;;;;;;5073065;28;20384;-94
2022/08/12 10:03:05;;;;;;;5.68;0.50;;;34.20;35.10;;;;;;5089291;28;20024;-94
2022/08/12 10:05:35;;;;;;;0.60;0.50;;;33.60;33.80;;;;;;5084889;28;20024;-93
2022/08/12 10:08:09;;;;;;;1.40;0.60;;;30.60;35.90;;;;;;5062523;28;20074;-93
2022/08/12 10:13:40;;;;;;;1.95;0.60;;;29.50;39.00;;;;;;5095555;28;20169;-93
2022/08/12 10:13:40;;;;;;;1.67;0.60;;;28.40;39.90;;;;;;5091640;28;20051;-92
2022/08/12 10:16:13;;;;;;;3.60;0.70;;;27.30;41.30;;;;;;5065605;28;20365;-93
2022/08/12 10:18:43;;;;;;;3.03;0.80;;;27.20;42.10;;;;;;5083255;28;20499;-93
2022/08/12 10:21:14;;;;;;;0.68;0.50;;;27.50;42.10;;;;;;5068692;28;20036;-93
2022/08/12 10:23:42;;;;;;;4.63;0.60;;;27.80;42.40;;;;;;5082943;28;20032;-93
2022/08/12 10:31:39;;;;;;;1.65;0.50;;;28.60;40.70;;;;;;5091020;28;20039;-94
2022/08/12 10:34:08;;;;;;;0.80;0.40;;;29.30;39.30;;;;;;5072602;28;20028;-94
2022/08/12 10:36:37;;;;;;;1.17;0.40;;;30.20;38.30;;;;;;5071986;28;20040;-94
2022/08/12 10:39:04;;;;;;;2.28;0.40;;;31.20;36.70;;;;;;5090051;28;20082;-94
2022/08/12 10:44:14;;;;;;;1.48;0.60;;;33.70;35.70;;;;;;5090611;28;20042;-93
2022/08/12 10:46:41;;;;;;;3.28;0.50;;;33.60;32.50;;;;;;5083397;28;20551;-93
2022/08/12 10:49:11;;;;;;;1.48;0.60;;;31.80;34.60;;;;;;5072408;28;20020;-93
2022/08/12 10:51:40;;;;;;;2.93;0.57;;;32.40;34.60;;;;;;5085829;28;20735;-93
2022/08/12 10:54:06;;;;;;;0.77;0.50;;;32.00;33.80;;;;;;5095442;28;20265;-93
2022/08/12 10:56:33;;;;;;;0.93;0.50;;;31.40;35.60;;;;;;5078206;28;20028;-93
2022/08/12 10:58:59;;;;;;;2.60;0.95;;;29.70;36.10;;;;;;5091238;28;20153;-93
2022/08/12 11:01:26;;;;;;;0.95;0.30;;;29.50;37.70;;;;;;5084984;28;20044;-92
2022/08/12 11:03:52;;;;;;;5.13;0.40;;;29.50;37.20;;;;;;5088440;28;20388;-94
2022/08/12 11:06:22;;;;;;;1.38;0.50;;;29.80;39.10;;;;;;5073758;28;20032;-93
2022/08/12 11:08:48;;;;;;;0.45;0.45;;;30.80;37.60;;;;;;5083595;28;20106;-92
2022/08/12 11:11:19;;;;;;;1.27;0.55;;;31.30;35.80;;;;;;5073922;28;20031;-93
2022/08/12 11:13:45;;;;;;;;;;;31.30;35.50;;;;;;5076587;28;20178;-91
2022/08/12 11:16:12;;;;;;;1.02;0.55;;;31.00;35.80;;;;;;5086733;28;20371;-92
2022/08/12 11:18:39;;;;;;;0.93;0.50;;;30.40;36.30;;;;;;5066481;28;20031;-94
2022/08/12 11:21:04;;;;;;;3.20;0.75;;;30.30;37.00;;;;;;5087870;28;20085;-92
2022/08/12 11:23:30;;;;;;;1.38;0.50;;;30.30;37.20;;;;;;5085796;28;20067;-94
2022/08/12 11:25:56;;;;;;;0.80;0.60;;;30.00;37.60;;;;;;5083379;28;20044;-94
2022/08/12 11:28:21;;;;;;;0.73;0.50;;;30.10;39.30;;;;;;5087221;28;20032;-94
2022/08/12 11:30:47;;;;;;;1.80;0.63;;;30.40;36.60;;;;;;5075486;28;20035;-94
2022/08/12 11:33:13;;;;;;;3.95;0.60;;;30.30;37.50;;;;;;5070895;28;20039;-93
2022/08/12 11:35:42;;;;;;;2.88;0.63;;;30.90;38.00;;;;;;5086514;28;20036;-93
2022/08/12 11:38:09;;;;;;;1.75;0.65;;;31.30;35.90;;;;;;5089640;28;20052;-94
2022/08/12 11:40:35;;;;;;;1.15;0.60;;;30.10;36.60;;;;;;5090477;28;20036;-92
2022/08/12 11:43:01;;;;;;;1.65;0.60;;;29.60;37.20;;;;;;5071780;28;20039;-93
2022/08/12 11:45:30;;;;;;;1.42;0.60;;;29.80;38.30;;;;;;5094004;28;20032;-93
2022/08/12 11:48:00;;;;;;;1.65;0.55;;;29.90;38.40;;;;;;5088405;28;20036;-94
2022/08/12 11:50:26;;;;;;;0.38;0.38;;;30.00;38.00;;;;;;5091685;28;20059;-93
2022/08/12 11:52:52;;;;;;;1.73;0.70;;;29.70;37.90;;;;;;5085319;28;20062;-93
2022/08/12 11:55:18;;;;;;;0.85;0.60;;;29.30;38.30;;;;;;5086972;28;20123;-94
2022/08/12 11:57:48;;;;;;;1.35;0.52;;;29.40;38.90;;;;;;5088103;28;20012;-93
2022/08/12 12:00:14;;;;;;;;;;;30.00;38.80;;;;;;5086398;28;20055;-94
2022/08/12 12:02:40;;;;;;;0.68;0.40;;;30.20;38.60;;;;;;5075683;28;19966;-94
2022/08/12 12:05:06;;;;;;;1.13;0.55;;;30.40;38.10;;;;;;5091298;28;20412;-93
2022/08/12 12:07:32;;;;;;;0.65;0.50;;;30.70;38.20;;;;;;5084675;28;20108;-93
2022/08/12 12:09:58;;;;;;;1.15;0.50;;;31.10;36.90;;;;;;5090441;28;20084;-92
2022/08/12 12:12:23;;;;;;;0.40;0.40;;;31.20;35.50;;;;;;5077896;28;20515;-93
2022/08/12 12:14:50;;;;;;;0.98;0.60;;;30.60;35.90;;;;;;5089322;28;20028;-91
2022/08/12 12:17:15;;;;;;;0.43;0.43;;;30.10;36.60;;;;;;5065786;28;20025;-94
2022/08/12 12:19:41;;;;;;;0.75;0.40;;;29.90;36.70;;;;;;5087123;28;20038;-93
2022/08/12 12:22:07;;;;;;;2.25;0.68;;;29.40;37.20;;;;;;5081659;28;20679;-94
2022/08/12 12:24:33;;;;;;;1.70;0.40;;;29.20;37.30;;;;;;5087844;28;20069;-93
2022/08/12 12:26:58;;;;;;;0.82;0.70;;;28.90;38.30;;;;;;5087066;28;20122;-93
2022/08/12 12:29:24;;;;;;;2.33;0.50;;;28.80;38.20;;;;;;5067364;28;20028;-93
2022/08/12 12:31:50;;;;;;;4.00;0.65;;;29.40;37.80;;;;;;5082081;28;20103;-94
2022/08/12 12:34:15;;;;;;;4.45;0.50;;;29.20;37.30;;;;;;5082662;28;20103;-93
2022/08/12 12:36:41;;;;;;;1.45;0.50;;;28.80;38.20;;;;;;5084097;28;20031;-92
2022/08/12 12:39:06;;;;;;;1.20;0.40;;;28.50;38.90;;;;;;5083472;28;20035;-93
2022/08/12 12:41:32;;;;;;;3.72;0.50;;;28.50;38.40;;;;;;5079954;28;20036;-93
2022/08/12 12:43:58;;;;;;;0.55;0.47;;;28.40;38.80;;;;;;5087106;28;20027;-93
2022/08/12 12:46:23;;;;;;;2.05;0.60;;;28.40;39.40;;;;;;5080622;28;20657;-93
2022/08/12 12:48:49;;;;;;;0.70;0.52;;;28.70;39.20;;;;;;5066526;28;20476;-93
2022/08/12 12:51:15;;;;;;;0.63;0.43;;;28.80;39.40;;;;;;5073820;28;20504;-94
2022/08/12 12:53:44;;;;;;;2.20;0.40;;;29.00;39.00;;;;;;5084632;28;20496;-93
2022/08/12 12:56:19;;;;;;;3.75;0.65;;;28.90;38.60;;;;;;5071017;28;20031;-91
2022/08/12 12:58:48;;;;;;;1.08;0.40;;;28.80;38.70;;;;;;5089069;28;20048;-92
2022/08/12 13:01:17;;;;;;;1.02;0.75;;;28.80;38.20;;;;;;5086729;28;20020;-93
2022/08/12 13:03:44;;;;;;;0.82;0.50;;;28.60;39.30;;;;;;5089846;28;20034;-94
2022/08/12 13:06:11;;;;;;;5.05;0.65;;;27.90;39.80;;;;;;5065905;28;20024;-93
2022/08/12 13:08:37;;;;;;;0.95;0.60;;;28.00;40.00;;;;;;5072735;28;20037;-94
2022/08/12 13:11:05;;;;;;;2.97;0.65;;;28.20;39.80;;;;;;5084520;28;20040;-93
2022/08/12 13:13:33;;;;;;;0.90;0.50;;;28.10;39.70;;;;;;5082660;28;20025;-93
2022/08/12 13:16:00;;;;;;;1.27;0.70;;;28.10;40.10;;;;;;5076651;28;20055;-93
2022/08/12 13:18:39;;;;;;;2.00;0.60;;;28.10;39.90;;;;;;5078798;28;20052;-93
2022/08/12 13:21:08;;;;;;;1.15;0.60;;;28.10;40.30;;;;;;5064192;28;20596;-94
2022/08/12 13:23:35;;;;;;;0.68;0.60;;;28.00;40.60;;;;;;5081862;28;20036;-93
2022/08/12 13:26:01;;;;;;;1.10;0.40;;;28.00;40.10;;;;;;5064216;28;20021;-93
2022/08/12 13:28:29;;;;;;;5.55;1.00;;;28.00;40.40;;;;;;5088609;28;20050;-93
2022/08/12 13:30:56;;;;;;;0.68;0.65;;;27.80;40.20;;;;;;5090387;28;20146;-92
2022/08/12 13:33:32;;;;;;;1.35;0.50;;;27.70;41.00;;;;;;5088791;28;20028;-94
2022/08/12 13:35:59;;;;;;;1.85;0.60;;;27.80;41.30;;;;;;5088303;28;20038;-92
2022/08/12 13:38:40;;;;;;;3.88;0.70;;;27.90;40.80;;;;;;5069057;28;20524;-93
2022/08/12 13:41:31;;;;;;;1.40;0.55;;;28.20;40.80;;;;;;5089707;28;20412;-93
2022/08/12 13:43:58;;;;;;;1.13;0.60;;;28.00;40.20;;;;;;5092884;28;20491;-93
2022/08/12 13:46:24;;;;;;;1.90;0.70;;;28.20;41.50;;;;;;5096233;28;20024;-93
2022/08/12 13:48:53;;;;;;;0.70;0.63;;;28.30;40.40;;;;;;5079288;28;20029;-93
2022/08/12 13:51:19;;;;;;;3.08;0.70;;;28.30;40.30;;;;;;5075771;28;20036;-93
2022/08/12 13:53:45;;;;;;;1.10;0.60;;;28.10;40.60;;;;;;5086339;28;20024;-93
2022/08/12 13:56:10;;;;;;;1.65;0.52;;;28.10;41.00;;;;;;5071804;28;20162;-92
2022/08/12 13:58:48;;;;;;;0.63;0.60;;;27.90;41.20;;;;;;5068545;28;20301;-94
2022/08/12 14:01:19;;;;;;;2.33;0.65;;;27.80;41.00;;;;;;5090904;28;20024;-93
2022/08/12 14:03:46;;;;;;;1.00;0.65;;;28.10;41.70;;;;;;5084642;28;20085;-93
2022/08/12 14:06:12;;;;;;;1.05;0.50;;;28.50;40.30;;;;;;5089955;28;20098;-93
2022/08/12 14:08:38;;;;;;;1.52;0.70;;;28.60;40.30;;;;;;5058447;28;20730;-94
2022/08/12 14:11:04;;;;;;;0.75;0.60;;;28.50;40.00;;;;;;5080663;28;20024;-92
2022/08/12 14:13:33;;;;;;;1.35;0.80;;;28.60;40.60;;;;;;5064032;28;20914;-93
2022/08/12 14:16:01;;;;;;;4.75;0.82;;;28.60;39.80;;;;;;5064961;28;20066;-92
2022/08/12 14:18:31;;;;;;;1.60;0.60;;;28.30;40.40;;;;;;5088400;28;20052;-93
2022/08/12 14:21:00;;;;;;;2.58;0.80;;;28.40;40.20;;;;;;5085338;28;20037;-93
2022/08/12 14:23:29;;;;;;;3.53;0.90;;;28.50;40.40;;;;;;5085253;28;20024;-94
2022/08/12 14:25:57;;;;;;;1.27;0.63;;;28.70;40.40;;;;;;5082263;28;20645;-92
2022/08/12 14:28:24;;;;;;;1.35;0.60;;;29.00;38.90;;;;;;5077512;28;20033;-93
2022/08/12 14:30:59;;;;;;;3.38;1.00;;;28.90;39.70;;;;;;5071564;28;20028;-93
2022/08/12 14:33:39;;;;;;;1.23;0.77;;;29.10;39.70;;;;;;5088521;28;20097;-93
2022/08/12 14:36:10;;;;;;;6.82;0.80;;;28.70;39.70;;;;;;5071304;28;20094;-93
2022/08/12 14:38:40;;;;;;;;;;;28.80;41.60;;;;;;5073674;28;20066;-95
2022/08/12 14:41:11;;;;;;;2.15;0.70;;;29.00;40.90;;;;;;5088601;28;19912;-93
2022/08/12 14:43:38;;;;;;;2.78;0.70;;;29.40;40.20;;;;;;5073160;28;20032;-93
2022/08/12 14:46:11;;;;;;;4.43;0.70;;;29.90;39.60;;;;;;5081884;28;20044;-93